Terminal Aerodrome Forecast
Issued by NWS Boston, MA

Home | Current Version | Previous Version | Text Only | Print | Product List | Glossary On
Versions: 1 2 3 4 5 6 7 8 9 10 11 12 13 14 15 16 17 18 19 20 21 22 23 24 25 26 27 28
000
FTUS41 KBOX 210814 AAA
TAFBOS
TAF AMD
KBOS 210814Z 2108/2212 27006KT P6SM FEW250
     FM211800 28007G16KT P6SM SCT040
     FM212300 27010KT P6SM FEW250
     FM220200 27010KT P6SM FEW150=

USA.gov is the U.S. government's official web portal to all federal, state and local government web resources and services.